Time;durP1;ratioP1;P1;durP2;ratioP2;P2;SDS_P1;SDS_P2;PMS_P1;PMS_P2;Temp;Humidity;BMP_temperature;BMP_pressure;BME280_temperature;BME280_humidity;BME280_pressure;Samples;Min_cycle;Max_cycle;Signal;HPM_P1;HPM_P2
2023/01/04 00:01:15;;;;;;;1.27;0.70;;;;;;;3.54;100.00;100350.54;1770211;79;21136;-54
2023/01/04 00:03:41;;;;;;;1.43;0.67;;;;;;;3.51;100.00;100353.22;1763647;79;21507;-54
2023/01/04 00:06:10;;;;;;;0.57;0.50;;;;;;;3.50;100.00;100358.11;1772883;79;21477;-54
2023/01/04 00:08:37;;;;;;;2.10;0.60;;;;;;;3.50;100.00;100363.88;1769024;79;22444;-54
2023/01/04 00:11:11;;;;;;;0.93;0.57;;;;;;;3.50;100.00;100370.08;1764121;79;21057;-54
2023/01/04 00:13:38;;;;;;;2.30;0.60;;;;;;;3.50;100.00;100366.09;1770315;79;21012;-54
2023/01/04 00:16:07;;;;;;;1.53;0.80;;;;;;;3.52;100.00;100366.08;1766565;79;21032;-55
2023/01/04 00:18:36;;;;;;;1.10;0.70;;;;;;;3.51;100.00;100370.52;1765006;79;21062;-54
2023/01/04 00:21:18;;;;;;;0.73;0.70;;;;;;;3.50;100.00;100374.52;1761631;79;21864;-55
2023/01/04 00:23:46;;;;;;;0.93;0.70;;;;;;;3.47;100.00;100378.12;1769602;79;21031;-55
2023/01/04 00:26:17;;;;;;;2.30;0.70;;;;;;;3.44;100.00;100376.80;1769292;79;21123;-55
2023/01/04 00:28:44;;;;;;;1.87;0.70;;;;;;;3.39;100.00;100379.52;1765191;79;21719;-55
2023/01/04 00:31:13;;;;;;;1.73;0.60;;;;;;;3.33;100.00;100374.23;1760075;79;21101;-55
2023/01/04 00:33:40;;;;;;;1.20;0.50;;;;;;;3.29;100.00;100381.83;1776359;78;21793;-54
2023/01/04 00:36:12;;;;;;;1.23;0.60;;;;;;;3.26;100.00;100375.19;1773175;79;21041;-55
2023/01/04 00:38:39;;;;;;;2.00;0.40;;;;;;;3.22;100.00;100371.26;1765616;79;21530;-53
2023/01/04 00:41:05;;;;;;;1.10;0.47;;;;;;;3.21;100.00;100377.47;1771951;79;21018;-53
2023/01/04 00:43:33;;;;;;;2.10;0.90;;;;;;;3.21;100.00;100375.69;1770270;79;21040;-53
2023/01/04 00:46:00;;;;;;;1.20;0.50;;;;;;;3.22;100.00;100378.80;1773438;79;21824;-53
2023/01/04 00:48:28;;;;;;;1.00;0.60;;;;;;;3.25;100.00;100373.87;1768571;79;21049;-54
2023/01/04 00:50:55;;;;;;;0.60;0.50;;;;;;;3.26;100.00;100375.64;1766319;79;21691;-53
2023/01/04 00:53:22;;;;;;;2.40;0.67;;;;;;;3.26;100.00;100378.30;1768621;79;21078;-53
2023/01/04 00:55:49;;;;;;;1.10;0.60;;;;;;;3.23;100.00;100377.87;1772246;79;21036;-53
2023/01/04 00:58:15;;;;;;;0.90;0.60;;;;;;;3.20;100.00;100377.03;1766111;79;21828;-53
2023/01/04 01:00:41;;;;;;;0.77;0.50;;;;;;;3.15;100.00;100379.71;1769843;79;21204;-54
2023/01/04 01:03:08;;;;;;;5.53;0.60;;;;;;;3.11;100.00;100381.09;1775375;79;21040;-53
2023/01/04 01:05:34;;;;;;;1.80;0.60;;;;;;;3.07;100.00;100379.34;1768170;79;21202;-53
2023/01/04 01:08:23;;;;;;;1.10;0.40;;;;;;;3.02;100.00;100375.41;1771313;79;21110;-53
2023/01/04 01:10:33;;;;;;;1.70;0.50;;;;;;;2.98;100.00;100367.88;1770498;79;21818;-54
2023/01/04 01:13:01;;;;;;;0.50;0.40;;;;;;;2.97;100.00;100368.80;1769982;79;21033;-53
2023/01/04 01:15:27;;;;;;;1.50;0.40;;;;;;;2.96;100.00;100360.39;1765303;79;21663;-53
2023/01/04 01:17:55;;;;;;;0.90;0.60;;;;;;;2.97;100.00;100359.94;1768027;79;21104;-53
2023/01/04 01:20:21;;;;;;;1.07;0.50;;;;;;;2.97;100.00;100360.83;1767297;79;21036;-53
2023/01/04 01:22:47;;;;;;;0.53;0.37;;;;;;;2.99;100.00;100356.80;1769934;79;21835;-53
2023/01/04 01:25:14;;;;;;;2.50;0.50;;;;;;;2.99;100.00;100359.01;1774335;79;21040;-54
2023/01/04 01:27:41;;;;;;;1.53;0.50;;;;;;;2.98;100.00;100354.58;1780098;79;21052;-63
2023/01/04 01:30:08;;;;;;;0.90;0.37;;;;;;;2.95;100.00;100355.95;1779630;79;21017;-53
2023/01/04 01:32:35;;;;;;;0.70;0.40;;;;;;;2.93;100.00;100360.40;1781913;79;20970;-53
2023/01/04 01:35:02;;;;;;;0.80;0.40;;;;;;;2.90;100.00;100357.75;1781422;79;21770;-53
2023/01/04 01:37:29;;;;;;;1.30;0.40;;;;;;;2.87;100.00;100353.81;1779390;79;20987;-53
2023/01/04 01:39:55;;;;;;;2.53;0.40;;;;;;;2.84;100.00;100368.44;1779321;79;21346;-53
2023/01/04 01:42:22;;;;;;;1.83;0.43;;;;;;;2.83;100.00;100361.80;1777705;79;21009;-54
2023/01/04 01:44:59;;;;;;;1.87;0.50;;;;;;;2.78;100.00;100361.84;1729549;79;21014;-53
2023/01/04 01:47:34;;;;;;;1.10;0.40;;;;;;;2.76;100.00;100369.39;1777749;79;21902;-53
2023/01/04 01:50:00;;;;;;;2.10;0.40;;;;;;;2.73;100.00;100368.95;1780237;79;20973;-53
2023/01/04 01:52:30;;;;;;;1.90;0.40;;;;;;;2.72;100.00;100367.22;1782560;79;20978;-54
2023/01/04 01:55:03;;;;;;;0.80;0.40;;;;;;;2.70;100.00;100370.33;1796547;78;21419;-54
2023/01/04 01:57:32;;;;;;;1.70;0.37;;;;;;;2.70;100.00;100358.36;1785065;78;21884;-53
2023/01/04 02:00:03;;;;;;;1.03;0.50;;;;;;;2.68;100.00;100370.77;1793363;78;22537;-54
2023/01/04 02:02:32;;;;;;;0.90;0.40;;;;;;;2.66;100.00;100367.23;1783424;78;21052;-53
2023/01/04 02:04:59;;;;;;;0.60;0.40;;;;;;;2.65;100.00;100372.11;1790408;78;21028;-54
2023/01/04 02:07:26;;;;;;;1.10;0.50;;;;;;;2.65;100.00;100370.78;1786170;78;21051;-53
2023/01/04 02:09:54;;;;;;;1.17;0.50;;;;;;;2.65;100.00;100369.45;1786381;78;21135;-53
2023/01/04 02:12:21;;;;;;;1.13;0.40;;;;;;;2.65;100.00;100364.14;1755984;80;21844;-53
2023/01/04 02:14:49;;;;;;;1.03;0.60;;;;;;;2.67;100.00;100366.34;1764468;80;21024;-57
2023/01/04 02:17:56;;;;;;;2.77;0.50;;;;;;;2.67;100.00;100366.34;1761027;80;21038;-53
2023/01/04 02:20:46;;;;;;;0.53;0.40;;;;;;;2.68;100.00;100374.76;1761298;80;21091;-54
2023/01/04 02:23:40;;;;;;;1.00;0.50;;;;;;;2.70;100.00;100372.09;1774146;79;21108;-54
2023/01/04 02:26:39;;;;;;;1.17;0.50;;;;;;;2.69;100.00;100363.68;1796400;78;21775;-53
2023/01/04 02:29:38;;;;;;;1.23;0.37;;;;;;;2.67;100.00;100366.34;1786012;78;21139;-52
2023/01/04 02:32:19;;;;;;;1.13;0.60;;;;;;;2.63;100.00;100362.84;1780782;78;21049;-52
2023/01/04 02:35:17;;;;;;;0.70;0.50;;;;;;;2.62;100.00;100365.51;1767474;80;21068;-55
2023/01/04 02:37:58;;;;;;;1.00;0.80;;;;;;;2.61;100.00;100359.75;1772298;79;21021;-52
2023/01/04 02:40:36;;;;;;;0.93;0.50;;;;;;;2.59;100.00;100361.53;1773545;79;21297;-52
2023/01/04 02:46:07;;;;;;;0.90;0.50;;;;;;;2.52;100.00;100355.82;1772023;79;21113;-53
2023/01/04 02:51:29;;;;;;;0.73;0.40;;;;;;;2.50;100.00;100357.15;1776070;79;21041;-54
2023/01/04 02:53:58;;;;;;;1.93;0.50;;;;;;;2.51;100.00;100357.59;1770479;79;21934;-51
2023/01/04 02:56:39;;;;;;;0.80;0.50;;;;;;;2.53;100.00;100354.48;1775559;79;21032;-52
2023/01/04 02:59:35;;;;;;;1.77;0.50;;;;;;;2.53;100.00;100347.84;1774372;79;21025;-55
2023/01/04 03:06:16;;;;;;;1.90;0.60;;;;;;;2.49;100.00;100346.08;1767678;79;21115;-51
2023/01/04 03:09:00;;;;;;;0.77;0.50;;;;;;;2.43;100.00;100346.57;1782582;78;21758;-51
2023/01/04 03:14:41;;;;;;;0.80;0.50;;;;;;;2.31;100.00;100347.52;1749440;80;21551;-53
2023/01/04 03:17:11;;;;;;;3.73;0.60;;;;;;;2.28;100.00;100347.11;1752906;80;21096;-51
2023/01/04 03:19:53;;;;;;;2.07;0.60;;;;;;;2.24;100.00;100350.66;1782887;78;21028;-52
2023/01/04 03:37:06;;;;;;;1.87;0.70;;;;;;;2.22;100.00;100350.22;1770678;79;22566;-55
2023/01/04 03:48:33;;;;;;;3.77;0.47;;;;;;;2.18;100.00;100357.78;1758571;78;21063;-55
2023/01/04 03:51:16;;;;;;;0.80;0.47;;;;;;;2.18;100.00;100361.32;1752300;80;21907;-53
2023/01/04 03:53:48;;;;;;;0.60;0.50;;;;;;;2.20;100.00;100350.69;1768866;78;21545;-53
2023/01/04 03:56:14;;;;;;;1.07;0.97;;;;;;;2.19;100.00;100348.92;1773981;78;21056;-53
2023/01/04 03:58:41;;;;;;;1.93;0.50;;;;;;;2.19;100.00;100348.48;1761680;80;21452;-55
2023/01/04 04:01:07;;;;;;;1.03;0.50;;;;;;;2.19;100.00;100352.47;1765900;80;21025;-54
2023/01/04 04:09:05;;;;;;;3.72;0.60;;;;;;;2.15;100.00;100356.01;1786291;78;20173;-52
2023/01/04 04:11:31;;;;;;;0.80;0.60;;;;;;;2.13;100.00;100361.77;1786802;78;21028;-54
2023/01/04 04:13:58;;;;;;;1.17;0.90;;;;;;;2.11;100.00;100358.70;1762257;80;21040;-54
2023/01/04 04:16:25;;;;;;;1.53;0.60;;;;;;;2.09;100.00;100357.81;1760910;80;23219;-52
2023/01/04 04:18:52;;;;;;;0.80;0.53;;;;;;;2.08;100.00;100366.67;1755827;80;21041;-52
2023/01/04 04:21:18;;;;;;;0.93;0.50;;;;;;;2.08;100.00;100359.59;1771966;79;21073;-55
2023/01/04 04:23:44;;;;;;;0.93;0.50;;;;;;;2.08;100.00;100357.38;1764143;79;22232;-52
2023/01/04 04:28:26;;;;;;;1.13;0.60;;;;;;;2.10;100.00;100326.39;1860274;75;27338;-53
2023/01/04 04:30:52;;;;;;;3.20;0.73;;;;;;;2.14;100.00;100359.55;1829416;77;21314;-54
2023/01/04 04:33:19;;;;;;;0.90;0.67;;;;;;;2.15;100.00;100356.45;1818688;77;21790;-52
2023/01/04 04:35:50;;;;;;;3.10;0.80;;;;;;;2.15;100.00;100344.06;1824589;77;21092;-52
2023/01/04 04:38:17;;;;;;;1.30;0.83;;;;;;;2.14;100.00;100355.56;1823566;77;20951;-54
2023/01/04 04:43:29;;;;;;;1.73;0.67;;;;;;;2.11;100.00;100356.94;1825233;77;21414;-52
2023/01/04 04:45:55;;;;;;;1.40;0.83;;;;;;;2.09;100.00;100361.36;1832245;77;23012;-53
2023/01/04 04:48:22;;;;;;;2.37;0.90;;;;;;;2.05;100.00;100366.67;1819394;77;21399;-53
2023/01/04 04:50:48;;;;;;;1.20;0.80;;;;;;;2.03;100.00;100364.05;1830341;77;21022;-53
2023/01/04 04:53:15;;;;;;;2.73;0.80;;;;;;;2.02;100.00;100368.92;1826368;77;21179;-53
2023/01/04 04:55:41;;;;;;;0.97;0.67;;;;;;;2.00;100.00;100361.84;1819440;77;21544;-54
2023/01/04 04:58:08;;;;;;;2.40;1.07;;;;;;;1.99;100.00;100364.94;1821935;77;21770;-53
2023/01/04 05:00:34;;;;;;;5.90;0.80;;;;;;;1.97;100.00;100367.15;1822498;77;20961;-53
2023/01/04 05:03:01;;;;;;;1.70;0.70;;;;;;;1.95;100.00;100364.52;1820447;77;21068;-54
2023/01/04 05:05:29;;;;;;;1.00;0.50;;;;;;;1.96;100.00;100362.28;1825601;77;21140;-53
2023/01/04 05:07:55;;;;;;;3.23;0.87;;;;;;;1.99;100.00;100361.39;1825372;77;21030;-53
2023/01/04 05:10:22;;;;;;;1.87;0.60;;;;;;;2.01;100.00;100363.16;1814288;77;21825;-53
2023/01/04 05:13:00;;;;;;;1.40;0.57;;;;;;;2.04;100.00;100368.92;1792729;78;22189;-53
2023/01/04 05:15:35;;;;;;;1.00;0.60;;;;;;;2.08;100.00;100373.31;1789446;78;21059;-53
2023/01/04 05:18:03;;;;;;;1.83;0.73;;;;;;;2.13;100.00;100374.16;1785129;78;21505;-52
2023/01/04 05:20:31;;;;;;;1.20;0.70;;;;;;;2.14;100.00;100367.52;1790286;78;21028;-53
2023/01/04 05:22:58;;;;;;;3.37;0.60;;;;;;;2.16;100.00;100378.14;1792381;78;21766;-51
2023/01/04 05:25:24;;;;;;;1.57;0.60;;;;;;;2.16;100.00;100373.72;1790344;78;21101;-52
2023/01/04 05:27:52;;;;;;;2.80;0.60;;;;;;;2.17;100.00;100382.13;1788810;76;21566;-52
2023/01/04 05:33:04;;;;;;;1.10;0.60;;;;;;;2.22;100.00;100387.40;1789462;78;21108;-54
2023/01/04 05:35:31;;;;;;;1.80;0.87;;;;;;;2.25;100.00;100390.94;1794423;78;22506;-54
2023/01/04 05:37:57;;;;;;;1.53;1.00;;;;;;;2.28;100.00;100392.27;1792365;78;21581;-55
2023/01/04 05:40:24;;;;;;;1.90;0.80;;;;;;;2.29;100.00;100387.84;1755523;80;21033;-54
2023/01/04 05:42:50;;;;;;;1.80;0.73;;;;;;;2.31;100.00;100387.80;1733007;81;21487;-54
2023/01/04 05:45:19;;;;;;;1.63;0.80;;;;;;;2.33;100.00;100390.02;1727528;81;21051;-55
2023/01/04 05:47:50;;;;;;;0.90;0.60;;;;;;;2.35;100.00;100386.47;1732099;81;21837;-55
2023/01/04 05:50:21;;;;;;;1.30;0.80;;;;;;;2.39;100.00;100387.31;1724235;81;21081;-55
2023/01/04 05:52:48;;;;;;;2.70;0.80;;;;;;;2.39;100.00;100392.19;1718368;81;21104;-55
2023/01/04 05:55:15;;;;;;;1.23;0.70;;;;;;;2.41;100.00;100385.55;1758926;80;21283;-56
2023/01/04 05:57:41;;;;;;;0.90;0.60;;;;;;;2.40;100.00;100400.60;1753596;80;21006;-55
2023/01/04 06:00:09;;;;;;;2.07;0.80;;;;;;;2.41;100.00;100398.38;1721784;81;21903;-55
2023/01/04 06:02:37;;;;;;;1.20;0.70;;;;;;;2.42;100.00;100394.84;1712144;82;22235;-55
2023/01/04 06:05:05;;;;;;;1.57;0.70;;;;;;;2.43;100.00;100395.73;1743032;80;21029;-56
2023/01/04 06:07:31;;;;;;;1.13;0.70;;;;;;;2.44;100.00;100402.81;1746075;80;21012;-56
2023/01/04 06:09:58;;;;;;;3.00;0.80;;;;;;;2.48;100.00;100401.45;1742106;80;22275;-55
2023/01/04 06:12:24;;;;;;;0.93;0.60;;;;;;;2.54;100.00;100403.20;1738908;81;21862;-56
2023/01/04 06:14:51;;;;;;;1.60;0.60;;;;;;;2.57;100.00;100408.04;1744869;80;21528;-56
2023/01/04 06:17:18;;;;;;;2.10;0.70;;;;;;;2.61;100.00;100410.25;1741732;80;21077;-55
2023/01/04 06:19:45;;;;;;;1.10;0.70;;;;;;;2.64;100.00;100403.56;1743418;80;21053;-56
2023/01/04 06:22:11;;;;;;;1.10;0.80;;;;;;;2.64;100.00;100412.42;1738173;80;21048;-56
2023/01/04 06:24:38;;;;;;;1.17;0.70;;;;;;;2.65;100.00;100414.19;1742224;80;21855;-56
2023/01/04 06:27:04;;;;;;;1.93;0.70;;;;;;;2.66;100.00;100420.39;1742618;80;21141;-56
2023/01/04 06:29:31;;;;;;;2.13;0.70;;;;;;;2.66;100.00;100419.95;1741223;80;21077;-55
2023/01/04 06:31:57;;;;;;;5.27;0.97;;;;;;;2.66;100.00;100421.72;1744161;80;21513;-56
2023/01/04 06:34:24;;;;;;;1.03;0.93;;;;;;;2.68;100.00;100424.38;1743079;80;21057;-56
2023/01/04 06:36:50;;;;;;;2.87;0.70;;;;;;;2.70;100.00;100432.80;1744619;80;21846;-56
2023/01/04 06:39:17;;;;;;;1.10;0.60;;;;;;;2.71;100.00;100433.23;1744949;80;21071;-56
2023/01/04 06:41:44;;;;;;;0.90;0.50;;;;;;;2.72;100.00;100428.80;1743052;80;21660;-56
2023/01/04 06:44:11;;;;;;;1.57;0.50;;;;;;;2.73;100.00;100428.77;1749969;80;21066;-56
2023/01/04 06:46:37;;;;;;;0.90;0.50;;;;;;;2.78;100.00;100434.08;1744846;80;21386;-56
2023/01/04 06:49:04;;;;;;;1.00;0.60;;;;;;;2.80;100.00;100431.86;1741014;80;21825;-56
2023/01/04 06:51:31;;;;;;;1.20;0.67;;;;;;;2.84;100.00;100432.25;1748499;80;21080;-56
2023/01/04 06:53:57;;;;;;;1.80;0.70;;;;;;;2.88;100.00;100434.02;1744102;80;21511;-56
2023/01/04 06:56:24;;;;;;;1.27;0.77;;;;;;;2.92;100.00;100438.41;1736980;80;21084;-55
2023/01/04 06:58:50;;;;;;;2.07;0.70;;;;;;;2.94;100.00;100433.08;1746222;80;22331;-56
2023/01/04 07:01:17;;;;;;;2.30;0.70;;;;;;;2.94;100.00;100437.07;1747101;80;21828;-55
2023/01/04 07:03:43;;;;;;;1.20;0.80;;;;;;;2.95;100.00;100438.84;1742089;80;21381;-55
2023/01/04 07:06:10;;;;;;;1.57;0.80;;;;;;;2.96;100.00;100432.63;1744496;80;21151;-55
2023/01/04 07:08:37;;;;;;;1.53;0.70;;;;;;;2.98;100.00;100428.16;1742848;80;21098;-55
2023/01/04 07:11:04;;;;;;;1.57;0.60;;;;;;;2.98;100.00;100433.48;1746398;80;21289;-55
2023/01/04 07:13:30;;;;;;;1.20;0.60;;;;;;;3.01;100.00;100441.45;1745308;80;21808;-56
2023/01/04 07:15:57;;;;;;;2.83;0.67;;;;;;;3.04;100.00;100437.45;1749827;80;21399;-55
2023/01/04 07:18:24;;;;;;;1.70;0.70;;;;;;;3.07;100.00;100424.11;1741769;79;21104;-55
2023/01/04 07:20:50;;;;;;;0.93;0.70;;;;;;;3.11;100.00;100438.28;1744108;80;21044;-55
2023/01/04 07:23:18;;;;;;;1.57;0.70;;;;;;;3.15;100.00;100436.05;1737253;80;21083;-56
2023/01/04 07:25:45;;;;;;;2.83;0.80;;;;;;;3.18;100.00;100437.34;1739063;80;21883;-55
2023/01/04 07:29:13;;;;;;;2.73;0.90;;;;;;;3.17;100.00;100441.78;1742995;80;21056;-56
2023/01/04 07:30:43;;;;;;;3.33;0.90;;;;;;;3.16;100.00;100443.99;1745144;80;21033;-55
2023/01/04 07:33:10;;;;;;;2.03;0.80;;;;;;;3.15;100.00;100448.88;1745274;80;21703;-56
2023/01/04 07:35:37;;;;;;;2.03;0.80;;;;;;;3.14;100.00;100447.59;1751628;80;21467;-55
2023/01/04 07:38:03;;;;;;;0.90;0.60;;;;;;;3.15;100.00;100449.36;1722149;81;21804;-55
2023/01/04 07:40:30;;;;;;;2.37;0.60;;;;;;;3.16;100.00;100444.44;1757753;80;20997;-56
2023/01/04 07:42:57;;;;;;;3.13;0.70;;;;;;;3.20;100.00;100452.85;1759789;80;21056;-56
2023/01/04 07:45:26;;;;;;;3.53;0.93;;;;;;;3.22;100.00;100447.97;1754156;80;21053;-55
2023/01/04 07:47:52;;;;;;;3.33;0.90;;;;;;;3.26;100.00;100448.80;1753516;80;21295;-56
2023/01/04 07:50:20;;;;;;;3.50;0.80;;;;;;;3.28;100.00;100457.22;1762192;80;21858;-56
2023/01/04 07:52:47;;;;;;;2.30;0.90;;;;;;;3.31;100.00;100455.88;1760770;80;21031;-56
2023/01/04 07:55:14;;;;;;;1.40;0.70;;;;;;;3.33;100.00;100455.39;1752119;80;21058;-55
2023/01/04 07:57:40;;;;;;;3.00;0.70;;;;;;;3.33;100.00;100455.39;1754070;80;21131;-55
2023/01/04 08:00:08;;;;;;;1.20;0.63;;;;;;;3.35;100.00;100452.73;1757921;80;21032;-56
2023/01/04 08:02:37;;;;;;;4.10;0.50;;;;;;;3.35;100.00;100457.61;1754547;80;22226;-56
2023/01/04 08:05:05;;;;;;;3.83;0.70;;;;;;;3.37;100.00;100457.16;1727715;81;21337;-56
2023/01/04 08:07:32;;;;;;;1.40;0.60;;;;;;;3.38;100.00;100463.36;1713233;81;21095;-56
2023/01/04 08:09:58;;;;;;;3.20;0.60;;;;;;;3.39;100.00;100456.70;1722652;81;21214;-56
2023/01/04 08:12:25;;;;;;;3.53;0.60;;;;;;;3.42;100.00;100453.11;1755459;80;21067;-55
2023/01/04 08:14:53;;;;;;;1.00;0.70;;;;;;;3.43;100.00;100461.08;1761971;80;21034;-55
2023/01/04 08:17:21;;;;;;;5.80;0.60;;;;;;;3.47;100.00;100463.29;1763990;80;21016;-54
2023/01/04 08:19:47;;;;;;;2.17;0.70;;;;;;;3.51;100.00;100468.12;1725229;81;21061;-55
2023/01/04 08:22:14;;;;;;;2.63;0.63;;;;;;;3.53;100.00;100475.20;1761683;80;21605;-54
2023/01/04 08:24:40;;;;;;;1.97;0.60;;;;;;;3.53;100.00;100469.00;1755616;80;21071;-54
2023/01/04 08:27:07;;;;;;;2.13;0.73;;;;;;;3.50;100.00;100472.56;1727530;80;21816;-54
2023/01/04 08:29:33;;;;;;;2.27;0.70;;;;;;;3.45;100.00;100473.05;1750638;80;21502;-54
2023/01/04 08:31:59;;;;;;;1.73;0.70;;;;;;;3.44;100.00;100473.95;1745969;80;21079;-54
2023/01/04 08:34:26;;;;;;;1.63;1.13;;;;;;;3.43;100.00;100482.82;1758189;80;21028;-54
2023/01/04 08:36:53;;;;;;;1.40;0.70;;;;;;;3.42;100.00;100469.96;1754000;80;22333;-55
2023/01/04 08:39:20;;;;;;;2.30;0.70;;;;;;;3.46;100.00;100469.50;1758469;80;21840;-54
2023/01/04 08:41:49;;;;;;;2.33;1.37;;;;;;;3.51;100.00;100470.33;1748951;80;21028;-54
2023/01/04 08:44:20;;;;;;;1.80;0.80;;;;;;;3.56;100.00;100471.64;1735504;80;21084;-55
2023/01/04 08:46:47;;;;;;;1.80;0.77;;;;;;;3.59;100.00;100468.94;1732918;80;21530;-55
2023/01/04 08:49:14;;;;;;;2.93;0.90;;;;;;;3.59;100.00;100460.50;1737778;81;22305;-55
2023/01/04 08:51:41;;;;;;;1.30;0.60;;;;;;;3.60;100.00;100462.27;1741943;80;21961;-55
2023/01/04 08:54:08;;;;;;;1.30;0.80;;;;;;;3.62;100.00;100460.48;1735249;80;21106;-55
2023/01/04 08:56:35;;;;;;;2.20;1.00;;;;;;;3.63;100.00;100466.25;1734077;80;21013;-55
2023/01/04 08:59:02;;;;;;;4.03;0.80;;;;;;;3.64;100.00;100468.02;1737913;80;21051;-55
2023/01/04 09:01:31;;;;;;;1.73;0.90;;;;;;;3.67;100.00;100468.42;1732711;80;21052;-55
2023/01/04 09:03:59;;;;;;;2.70;0.70;;;;;;;3.70;100.00;100467.07;1730481;80;21060;-55
2023/01/04 09:06:26;;;;;;;2.20;0.70;;;;;;;3.75;100.00;100466.56;1732774;80;21088;-55
2023/01/04 09:08:55;;;;;;;2.00;0.90;;;;;;;3.81;100.00;100467.86;1732070;80;21482;-55
2023/01/04 09:11:23;;;;;;;1.57;0.70;;;;;;;3.87;100.00;100470.91;1735704;80;21137;-55
2023/01/04 09:13:55;;;;;;;1.67;0.70;;;;;;;3.89;100.00;100459.34;1752705;80;21155;-55
2023/01/04 09:16:22;;;;;;;1.50;0.80;;;;;;;3.90;100.00;100462.90;1742130;80;21849;-55
2023/01/04 09:18:48;;;;;;;2.50;0.80;;;;;;;3.91;100.00;100468.66;1725068;81;21664;-55
2023/01/04 09:21:17;;;;;;;1.77;0.80;;;;;;;3.91;100.00;100466.00;1725493;81;21072;-56
2023/01/04 09:23:44;;;;;;;1.53;0.70;;;;;;;3.91;100.00;100471.33;1714070;81;21580;-55
2023/01/04 09:26:16;;;;;;;2.37;0.60;;;;;;;3.91;100.00;100468.66;1740146;80;21100;-54
2023/01/04 09:28:42;;;;;;;1.37;0.70;;;;;;;3.92;100.00;100463.73;1759056;80;21929;-55
2023/01/04 09:31:12;;;;;;;2.17;0.60;;;;;;;3.95;100.00;100471.71;1764240;80;22228;-55
2023/01/04 09:33:39;;;;;;;1.10;0.67;;;;;;;3.98;100.00;100469.03;1758258;80;21356;-55
2023/01/04 09:36:06;;;;;;;0.80;0.60;;;;;;;4.04;100.00;100463.18;1740872;80;21120;-55
2023/01/04 09:38:33;;;;;;;2.70;0.70;;;;;;;4.09;100.00;100453.79;1743389;80;21055;-55
2023/01/04 09:41:14;;;;;;;1.50;0.60;;;;;;;4.15;100.00;100451.08;1737096;80;23063;-56
2023/01/04 09:43:53;;;;;;;1.07;0.60;;;;;;;4.17;100.00;100444.81;1731504;80;21559;-55
2023/01/04 09:46:52;;;;;;;3.77;0.67;;;;;;;4.18;100.00;100449.70;1719775;80;21080;-55
2023/01/04 09:49:44;;;;;;;1.43;0.60;;;;;;;4.18;100.00;100441.25;1741140;80;21181;-54
2023/01/04 09:52:23;;;;;;;1.23;0.70;;;;;;;4.19;100.00;100439.47;1738467;80;21571;-55
2023/01/04 09:54:57;;;;;;;5.73;0.70;;;;;;;4.16;100.00;100433.75;1728721;81;21838;-55
2023/01/04 09:57:32;;;;;;;2.23;0.70;;;;;;;4.15;100.00;100422.66;1705702;81;21116;-55
2023/01/04 10:00:07;;;;;;;2.17;0.63;;;;;;;4.18;100.00;100421.72;1740883;80;21115;-56
2023/01/04 10:02:44;;;;;;;1.83;0.60;;;;;;;4.24;100.00;100413.67;1733590;80;21474;-57
2023/01/04 10:05:18;;;;;;;2.13;0.70;;;;;;;4.30;100.00;100424.25;1741040;80;21099;-55
2023/01/04 10:07:45;;;;;;;1.70;0.60;;;;;;;4.35;100.00;100427.73;1737528;81;25666;-55
2023/01/04 10:10:15;;;;;;;1.13;0.60;;;;;;;4.37;100.00;100432.59;1734118;80;21085;-55
2023/01/04 10:12:59;;;;;;;1.27;0.60;;;;;;;4.41;100.00;100432.12;1746985;80;20947;-55
2023/01/04 10:15:36;;;;;;;1.80;0.50;;;;;;;4.44;100.00;100432.06;1740811;80;21433;-55
2023/01/04 10:18:11;;;;;;;1.93;0.63;;;;;;;4.42;100.00;100416.56;1734671;80;22319;-55
2023/01/04 10:21:16;;;;;;;2.13;0.80;;;;;;;4.41;100.00;100426.34;1739779;80;21836;-55
2023/01/04 10:24:15;;;;;;;2.02;0.50;;;;;;;4.40;100.00;100422.36;1746750;80;21008;-55
2023/01/04 10:26:46;;;;;;;0.80;0.50;;;;;;;4.39;100.00;100426.80;1737516;80;20970;-55
2023/01/04 10:29:25;;;;;;;1.50;0.60;;;;;;;4.37;100.00;100421.05;1745094;80;21438;-55
2023/01/04 10:31:54;;;;;;;1.27;0.50;;;;;;;4.35;100.00;100413.52;1728303;81;20981;-55
2023/01/04 10:34:29;;;;;;;0.90;0.50;;;;;;;4.34;100.00;100415.78;1727316;81;21818;-55
2023/01/04 10:37:05;;;;;;;0.77;0.40;;;;;;;4.35;100.00;100407.73;1725127;81;20981;-55
2023/01/04 10:39:33;;;;;;;0.90;0.40;;;;;;;4.34;100.00;100412.63;1760606;80;21033;-55
2023/01/04 10:42:03;;;;;;;0.90;0.50;;;;;;;4.37;100.00;100410.39;1764652;80;20973;-55
2023/01/04 10:44:57;;;;;;;1.80;0.40;;;;;;;4.39;100.00;100403.27;1760995;80;20997;-55
2023/01/04 10:47:31;;;;;;;2.70;0.50;;;;;;;4.42;100.00;100409.90;1765229;80;21923;-55
2023/01/04 10:50:08;;;;;;;0.83;0.50;;;;;;;4.43;100.00;100412.52;1721749;81;21087;-55
2023/01/04 10:53:01;;;;;;;1.93;0.67;;;;;;;4.42;100.00;100421.89;1752680;80;21087;-55
2023/01/04 10:55:41;;;;;;;0.87;0.50;;;;;;;4.40;100.00;100433.02;1754152;80;21120;-54
2023/01/04 10:58:22;;;;;;;1.00;0.70;;;;;;;4.37;100.00;100426.38;1767713;80;21513;-53
2023/01/04 11:00:53;;;;;;;1.60;0.43;;;;;;;4.34;100.00;100425.11;1758522;80;21318;-54
2023/01/04 11:03:43;;;;;;;1.23;0.40;;;;;;;4.32;100.00;100427.78;1756799;80;21060;-56
2023/01/04 11:06:36;;;;;;;3.20;0.50;;;;;;;4.29;100.00;100426.48;1730388;81;21128;-56
2023/01/04 11:09:13;;;;;;;1.13;0.40;;;;;;;4.29;100.00;100419.81;1720635;81;21137;-57
2023/01/04 11:11:42;;;;;;;1.03;0.50;;;;;;;4.28;100.00;100426.04;1726185;81;21461;-57
2023/01/04 11:14:10;;;;;;;0.77;0.40;;;;;;;4.27;100.00;100427.39;1724705;81;21809;-56
2023/01/04 11:16:38;;;;;;;1.53;0.50;;;;;;;4.25;100.00;100425.22;1729108;81;21162;-54
2023/01/04 11:19:04;;;;;;;2.07;0.50;;;;;;;4.25;100.00;100423.44;1725356;81;21066;-55
2023/01/04 11:21:37;;;;;;;1.00;0.50;;;;;;;4.24;100.00;100412.79;1723179;81;21595;-54
2023/01/04 11:24:04;;;;;;;1.10;0.50;;;;;;;4.23;100.00;100421.23;1745693;80;21411;-55
2023/01/04 11:26:42;;;;;;;1.10;0.40;;;;;;;4.25;100.00;100421.22;1750854;80;22884;-55
2023/01/04 11:29:08;;;;;;;1.00;0.43;;;;;;;4.26;100.00;100433.16;1751921;80;21060;-56
2023/01/04 11:31:52;;;;;;;3.37;0.60;;;;;;;4.26;100.00;100427.84;1736216;80;21105;-56
2023/01/04 11:34:18;;;;;;;4.03;0.73;;;;;;;4.31;100.00;100424.69;1733445;81;21063;-56
2023/01/04 11:36:46;;;;;;;2.27;0.80;;;;;;;4.37;100.00;100422.38;1741924;80;21018;-56
2023/01/04 11:39:24;;;;;;;1.60;1.00;;;;;;;4.36;100.00;100426.83;1734975;81;22681;-56
2023/01/04 11:42:05;;;;;;;1.70;1.00;;;;;;;4.37;100.00;100424.59;1736439;80;21009;-56
2023/01/04 11:44:33;;;;;;;2.20;1.10;;;;;;;4.35;100.00;100422.39;1731848;81;21051;-55
2023/01/04 11:47:19;;;;;;;2.70;1.20;;;;;;;4.31;100.00;100424.69;1738064;80;21184;-56
2023/01/04 11:49:46;;;;;;;4.53;1.70;;;;;;;4.28;100.00;100415.38;1732377;81;21109;-55
2023/01/04 11:52:35;;;;;;;5.50;1.40;;;;;;;4.29;100.00;100413.60;1736833;80;21911;-55
2023/01/04 11:55:27;;;;;;;3.27;1.53;;;;;;;4.32;100.00;100418.91;1743155;80;21064;-55
2023/01/04 11:58:13;;;;;;;3.77;1.13;;;;;;;4.36;100.00;100418.83;1729825;80;21314;-55
2023/01/04 12:00:53;;;;;;;2.90;1.00;;;;;;;4.41;100.00;100421.45;1742509;81;21072;-55
2023/01/04 12:03:31;;;;;;;1.10;0.83;;;;;;;4.41;100.00;100415.68;1737995;80;21068;-55
2023/01/04 12:05:58;;;;;;;1.20;0.70;;;;;;;4.42;100.00;100417.41;1730351;80;21937;-54
2023/01/04 12:08:31;;;;;;;2.70;1.30;;;;;;;4.42;100.00;100413.41;1734753;80;21061;-54
2023/01/04 12:10:59;;;;;;;3.03;0.90;;;;;;;4.38;100.00;100413.04;1741469;80;21057;-54
2023/01/04 12:13:25;;;;;;;1.40;1.07;;;;;;;4.35;100.00;100410.41;1733015;81;21612;-54
2023/01/04 12:16:35;;;;;;;1.37;0.90;;;;;;;4.33;100.00;100405.56;1735142;80;21069;-52
2023/01/04 12:19:02;;;;;;;1.33;0.70;;;;;;;4.30;100.00;100410.04;1740285;80;21834;-53
2023/01/04 12:21:31;;;;;;;0.90;0.60;;;;;;;4.25;100.00;100411.44;1726794;80;21415;-55
2023/01/04 12:23:57;;;;;;;1.20;0.60;;;;;;;4.23;100.00;100415.91;1734888;81;22308;-53
2023/01/04 12:26:24;;;;;;;0.97;0.87;;;;;;;4.22;100.00;100407.47;1732528;81;21114;-53
2023/01/04 12:29:10;;;;;;;1.10;0.60;;;;;;;4.24;100.00;100405.67;1734270;81;21049;-51
2023/01/04 12:31:37;;;;;;;1.20;0.67;;;;;;;4.26;100.00;100405.63;1705429;82;21799;-52